Time;durP1;ratioP1;P1;durP2;ratioP2;P2;SDS_P1;SDS_P2;PMS_P1;PMS_P2;Temp;Humidity;BMP_temperature;BMP_pressure;BME280_temperature;BME280_humidity;BME280_pressure;Samples;Min_cycle;Max_cycle;Signal;HPM_P1;HPM_P2
2021/07/03 00:00:17;;;;;;;11.00;6.82;;;;;;;16.69;75.50;101577.09;10100545;28;20121;-67
2021/07/03 00:05:13;;;;;;;12.05;7.95;;;;;;;16.67;75.94;101580.19;10101491;28;20082;-69
2021/07/03 00:10:11;;;;;;;11.95;7.68;;;;;;;16.58;76.17;101573.94;10109842;28;20043;-66
2021/07/03 00:15:12;;;;;;;14.50;9.15;;;;;;;16.61;76.40;101582.31;10106313;28;20054;-69
2021/07/03 00:20:33;;;;;;;15.70;8.82;;;;;;;16.53;76.62;101574.94;10340918;23;20419;-69
2021/07/03 00:25:29;;;;;;;13.63;9.13;;;;;;;16.48;76.54;101577.91;10064351;28;20617;-69
2021/07/03 00:30:26;;;;;;;14.82;9.13;;;;;;;16.46;76.52;101574.69;10025453;29;20106;-70
2021/07/03 00:35:22;;;;;;;13.10;8.93;;;;;;;16.42;77.19;101573.72;10018674;29;20052;-69
2021/07/03 00:40:19;;;;;;;17.85;11.35;;;;;;;16.32;77.68;101569.41;10022921;29;20094;-69
2021/07/03 00:45:16;;;;;;;16.92;11.18;;;;;;;16.26;77.87;101568.00;10018817;29;20631;-68
2021/07/03 00:50:13;;;;;;;17.42;11.40;;;;;;;16.24;77.92;101566.72;10026036;29;21574;-70
2021/07/03 00:55:10;;;;;;;15.13;9.77;;;;;;;16.22;77.88;101563.47;10020353;29;20048;-69
2021/07/03 01:00:07;;;;;;;18.80;11.65;;;;;;;16.14;78.25;101573.44;10031232;29;20515;-68
2021/07/03 01:05:05;;;;;;;21.33;12.18;;;;;;;16.10;78.32;101578.00;10026989;29;20602;-70
2021/07/03 01:10:04;;;;;;;14.48;9.25;;;;;;;16.09;78.51;101577.22;10016282;29;20143;-70
2021/07/03 01:15:00;;;;;;;16.05;9.30;;;;;;;16.05;78.43;101579.00;10016902;29;20043;-70
2021/07/03 01:19:56;;;;;;;16.23;8.63;;;;;;;16.01;78.87;101580.81;10041309;28;20075;-71
2021/07/03 01:24:53;;;;;;;12.98;8.65;;;;;;;16.00;78.94;101579.22;10036956;29;20047;-70
2021/07/03 01:29:49;;;;;;;14.82;9.02;;;;;;;15.94;79.36;101583.28;10027822;28;20040;-68
2021/07/03 01:34:46;;;;;;;18.77;11.45;;;;;;;15.90;79.58;101582.38;10035764;29;20098;-68
2021/07/03 01:39:42;;;;;;;18.55;12.65;;;;;;;15.91;79.99;101583.97;10032101;29;20070;-68
2021/07/03 01:44:39;;;;;;;20.48;13.57;;;;;;;15.84;80.27;101580.94;10018720;29;20130;-72
2021/07/03 01:50:00;;;;;;;17.30;11.85;;;;;;;15.76;80.40;101577.88;10130202;23;20062;-69
2021/07/03 01:54:56;;;;;;;12.40;9.75;;;;;;;15.72;79.95;101570.59;10100990;28;20050;-68
2021/07/03 01:59:53;;;;;;;17.33;10.48;;;;;;;15.71;79.51;101567.06;10092127;28;20134;-69
2021/07/03 02:04:49;;;;;;;15.07;11.07;;;;;;;15.65;79.54;101562.81;10107888;28;20410;-72
2021/07/03 02:09:46;;;;;;;19.48;12.18;;;;;;;15.62;79.52;101563.50;10162051;23;20047;-68
2021/07/03 02:14:42;;;;;;;17.15;10.63;;;;;;;15.56;79.58;101553.78;10105243;28;20074;-70
2021/07/03 02:19:39;;;;;;;13.93;10.95;;;;;;;15.54;79.64;101561.56;10101563;28;20047;-69
2021/07/03 02:24:35;;;;;;;18.35;11.18;;;;;;;15.49;79.31;101559.00;10110151;28;20483;-69
2021/07/03 02:29:32;;;;;;;19.45;12.23;;;;;;;15.46;79.80;101552.22;10120277;28;20047;-69
2021/07/03 02:34:29;;;;;;;14.93;11.40;;;;;;;15.43;79.78;101549.28;10117140;28;20595;-69
2021/07/03 02:39:25;;;;;;;18.30;11.73;;;;;;;15.42;80.05;101542.19;10126656;28;20106;-68
2021/07/03 02:44:22;;;;;;;20.02;13.23;;;;;;;15.42;80.75;101548.50;10103841;28;20083;-68
2021/07/03 02:49:20;;;;;;;17.85;12.65;;;;;;;15.44;80.47;101556.44;10109496;28;20046;-69
2021/07/03 02:54:17;;;;;;;23.23;15.20;;;;;;;15.41;81.08;101551.56;10122134;28;20046;-68
2021/07/03 02:59:14;;;;;;;21.92;15.98;;;;;;;15.39;81.60;101545.56;10108930;28;20081;-68
2021/07/03 03:04:10;;;;;;;18.42;14.45;;;;;;;15.36;81.43;101560.81;10102230;28;20451;-69
2021/07/03 03:09:07;;;;;;;26.35;16.17;;;;;;;15.34;81.91;101558.41;10098074;28;20046;-69
2021/07/03 03:14:03;;;;;;;17.67;13.48;;;;;;;15.21;82.59;101559.44;10110045;28;20478;-69
2021/07/03 03:19:00;;;;;;;18.17;14.05;;;;;;;15.18;82.19;101554.59;10128318;28;20039;-69
2021/07/03 03:23:57;;;;;;;20.23;14.85;;;;;;;15.20;82.09;101551.47;10117414;28;20098;-69
2021/07/03 03:28:53;;;;;;;21.85;14.60;;;;;;;15.18;82.03;101554.59;10094186;28;20097;-69
2021/07/03 03:33:50;;;;;;;22.58;15.00;;;;;;;15.16;81.94;101545.84;10097319;28;20618;-69
2021/07/03 03:38:46;;;;;;;18.13;12.90;;;;;;;15.17;81.95;101547.44;10094189;28;20507;-70
2021/07/03 03:43:43;;;;;;;16.73;12.77;;;;;;;15.16;81.60;101556.84;10098276;28;20043;-70
2021/07/03 03:48:39;;;;;;;19.27;13.68;;;;;;;15.15;81.76;101555.22;10085332;28;20042;-70
2021/07/03 03:53:36;;;;;;;22.08;15.25;;;;;;;15.20;81.85;101568.84;10098738;28;20058;-69
2021/07/03 03:58:32;;;;;;;22.65;16.48;;;;;;;15.17;82.88;101569.47;10093800;28;20043;-70
2021/07/03 04:03:29;;;;;;;22.48;16.02;;;;;;;15.08;83.08;101571.44;10086429;28;20622;-68
2021/07/03 04:08:25;;;;;;;26.08;16.52;;;;;;;15.04;83.72;101565.78;10098449;28;20510;-69
2021/07/03 04:13:22;;;;;;;19.83;15.23;;;;;;;15.04;83.53;101575.97;10089408;28;20573;-68
2021/07/03 04:18:18;;;;;;;26.63;18.35;;;;;;;15.09;83.72;101567.56;10081603;28;20050;-68
2021/07/03 04:23:15;;;;;;;20.75;15.10;;;;;;;15.08;83.86;101568.69;10117957;28;20450;-68
2021/07/03 04:28:11;;;;;;;23.10;18.63;;;;;;;15.13;83.93;101568.50;10098191;28;20058;-72
2021/07/03 04:33:08;;;;;;;23.33;18.63;;;;;;;15.16;84.29;101573.38;10101029;28;20105;-71
2021/07/03 04:38:04;;;;;;;24.38;17.98;;;;;;;15.20;84.09;101568.84;10100092;28;20502;-72
2021/07/03 04:43:01;;;;;;;23.73;19.00;;;;;;;15.24;84.33;101575.28;10099033;28;20047;-67
2021/07/03 04:47:57;;;;;;;25.08;19.58;;;;;;;15.27;84.51;101571.91;10097687;28;20039;-70
2021/07/03 04:52:55;;;;;;;27.80;20.25;;;;;;;15.31;84.48;101561.81;10103617;28;20051;-71
2021/07/03 04:57:52;;;;;;;24.13;19.13;;;;;;;15.34;84.95;101569.44;10086128;28;20526;-70
2021/07/03 05:02:49;;;;;;;26.92;19.58;;;;;;;15.40;85.19;101572.00;10078166;28;20043;-71
2021/07/03 05:07:46;;;;;;;24.50;18.48;;;;;;;15.44;85.02;101567.47;10103048;28;20034;-69
2021/07/03 05:12:42;;;;;;;21.88;15.25;;;;;;;15.52;84.70;101564.66;10094821;28;20046;-70
2021/07/03 05:17:40;;;;;;;23.42;16.77;;;;;;;15.52;84.22;101564.66;10098063;28;20506;-70
2021/07/03 05:22:37;;;;;;;22.42;16.63;;;;;;;15.62;83.83;101566.25;10078365;28;20451;-72
2021/07/03 05:27:35;;;;;;;23.65;15.43;;;;;;;15.65;83.58;101570.28;10105735;28;20105;-70
2021/07/03 05:32:31;;;;;;;18.23;13.75;;;;;;;15.69;83.30;101574.81;10093094;28;20098;-71
2021/07/03 05:37:28;;;;;;;15.95;11.48;;;;;;;15.72;83.00;101574.16;10084749;28;20110;-70
2021/07/03 05:42:25;;;;;;;12.98;9.45;;;;;;;15.83;82.34;101573.78;10103899;28;20585;-70
2021/07/03 05:47:22;;;;;;;13.55;8.73;;;;;;;15.97;81.63;101579.88;10085882;28;20051;-69
2021/07/03 05:52:19;;;;;;;16.08;8.65;;;;;;;15.97;79.91;101579.88;10096779;28;20111;-69
2021/07/03 05:57:15;;;;;;;11.20;8.27;;;;;;;16.06;80.31;101580.66;10100309;28;20503;-70
2021/07/03 06:02:12;;;;;;;15.00;7.85;;;;;;;16.27;80.04;101577.06;10100507;28;20044;-69
2021/07/03 06:07:08;;;;;;;9.70;6.70;;;;;;;16.40;78.79;101576.00;10095067;28;20039;-70
2021/07/03 06:12:05;;;;;;;11.38;5.10;;;;;;;16.48;78.48;101577.91;10088314;28;20047;-69
2021/07/03 06:17:02;;;;;;;10.00;5.85;;;;;;;16.56;77.44;101579.78;10092149;28;20035;-69
2021/07/03 06:22:21;;;;;;;9.07;5.07;;;;;;;16.65;76.83;101576.16;10303556;23;20123;-69
2021/07/03 06:27:18;;;;;;;10.98;5.03;;;;;;;16.66;76.28;101563.94;10055368;28;20499;-68
2021/07/03 06:32:15;;;;;;;10.55;5.22;;;;;;;16.71;76.04;101570.09;10053531;29;20530;-68
2021/07/03 06:37:11;;;;;;;14.70;6.00;;;;;;;16.76;75.83;101566.31;10053928;28;20065;-68
2021/07/03 06:42:08;;;;;;;9.20;5.75;;;;;;;16.75;74.41;101570.19;10256603;23;20055;-69
2021/07/03 06:47:05;;;;;;;10.05;5.28;;;;;;;16.72;75.26;101574.44;10073094;28;20094;-69
2021/07/03 06:52:02;;;;;;;8.27;4.50;;;;;;;16.78;74.66;101559.28;10021516;28;20047;-69
2021/07/03 06:56:58;;;;;;;9.13;4.00;;;;;;;16.75;74.58;101564.66;10019503;29;20416;-69
2021/07/03 07:01:56;;;;;;;9.98;4.38;;;;;;;16.73;74.00;101575.25;10018866;28;20040;-70
2021/07/03 07:06:55;;;;;;;8.52;4.22;;;;;;;16.76;73.52;101577.34;10021497;28;20677;-71
2021/07/03 07:11:53;;;;;;;7.03;3.92;;;;;;;16.84;73.32;101573.72;10021104;29;20071;-70
2021/07/03 07:16:50;;;;;;;6.85;3.92;;;;;;;16.94;73.25;101567.78;10022884;28;20044;-70
2021/07/03 07:21:46;;;;;;;10.80;5.82;;;;;;;17.06;72.39;101571.69;10018210;29;20051;-70
2021/07/03 07:26:43;;;;;;;6.80;4.05;;;;;;;17.20;72.21;101569.47;10016654;29;20067;-72
2021/07/03 07:31:40;;;;;;;10.30;4.65;;;;;;;17.30;71.49;101574.53;10015516;29;20204;-71
2021/07/03 07:36:37;;;;;;;6.97;4.00;;;;;;;17.26;70.01;101565.31;10007363;29;20604;-71
2021/07/03 07:41:34;;;;;;;8.55;4.78;;;;;;;17.15;70.80;101572.41;10018732;29;20067;-71
2021/07/03 07:46:31;;;;;;;6.70;4.20;;;;;;;17.18;71.22;101580.03;10005998;29;20051;-71
2021/07/03 07:51:28;;;;;;;8.80;3.97;;;;;;;17.30;71.37;101574.53;10014633;28;20044;-70
2021/07/03 07:56:25;;;;;;;9.43;3.85;;;;;;;17.50;70.52;101572.00;10011098;28;20147;-72
2021/07/03 08:01:24;;;;;;;6.95;4.30;;;;;;;17.68;70.30;101570.63;10004334;29;20051;-69
2021/07/03 08:06:20;;;;;;;7.88;4.25;;;;;;;17.76;69.89;101564.19;10003808;28;20537;-68
2021/07/03 08:11:22;;;;;;;6.47;4.00;;;;;;;17.92;69.09;101566.31;10009689;29;20039;-69
2021/07/03 08:16:19;;;;;;;8.13;3.90;;;;;;;18.07;69.09;101562.81;10015588;29;20043;-70
2021/07/03 08:21:17;;;;;;;5.88;3.78;;;;;;;18.08;68.04;101558.91;10007450;28;20479;-69
2021/07/03 08:26:13;;;;;;;6.68;3.80;;;;;;;17.96;67.63;101556.13;10008717;29;20058;-68
2021/07/03 08:31:10;;;;;;;8.23;4.05;;;;;;;17.95;67.51;101565.59;10005354;29;20081;-67
2021/07/03 08:36:07;;;;;;;6.95;3.70;;;;;;;17.98;68.22;101559.38;10015877;28;20047;-68
2021/07/03 08:41:04;;;;;;;6.35;3.63;;;;;;;18.02;67.33;101560.28;10016064;28;20047;-68
2021/07/03 08:46:06;;;;;;;7.85;4.05;;;;;;;18.09;66.92;101546.66;10001901;29;20103;-68
2021/07/03 08:51:03;;;;;;;10.35;3.75;;;;;;;18.35;65.74;101553.75;10010235;29;20047;-68
2021/07/03 08:56:00;;;;;;;7.07;3.25;;;;;;;18.53;65.99;101552.31;10005902;29;20047;-70
2021/07/03 09:00:57;;;;;;;6.70;3.42;;;;;;;18.41;65.76;101538.53;10011642;28;20058;-68
2021/07/03 09:05:57;;;;;;;5.40;2.97;;;;;;;18.38;65.76;101545.56;10019753;29;20501;-68
2021/07/03 09:11:08;;;;;;;6.50;3.28;;;;;;;18.35;64.42;101540.72;10005016;29;20532;-67
2021/07/03 09:16:06;;;;;;;5.32;3.33;;;;;;;18.63;64.74;101546.25;10004342;29;20048;-67
2021/07/03 09:21:07;;;;;;;5.95;3.20;;;;;;;18.88;64.12;101537.88;10015345;28;20044;-67
2021/07/03 09:26:12;;;;;;;6.22;2.92;;;;;;;18.70;61.41;101534.56;10022489;29;20500;-67
2021/07/03 09:31:11;;;;;;;5.32;3.13;;;;;;;18.79;62.65;101520.59;10024853;28;20043;-68
2021/07/03 09:36:09;;;;;;;5.90;2.58;;;;;;;19.18;61.37;101520.84;10025209;29;20138;-68
2021/07/03 09:41:16;;;;;;;5.40;2.80;;;;;;;19.31;61.04;101519.59;10035765;28;20642;-69
2021/07/03 09:46:22;;;;;;;5.60;2.95;;;;;;;19.14;58.93;101520.75;10016478;28;20048;-69
2021/07/03 09:51:26;;;;;;;5.55;2.63;;;;;;;19.11;60.53;101530.56;10014342;28;20078;-70
2021/07/03 09:56:23;;;;;;;5.35;2.40;;;;;;;18.92;60.70;101538.78;10018304;28;20056;-69
2021/07/03 10:01:19;;;;;;;5.07;2.58;;;;;;;19.07;61.86;101524.13;10007158;29;20063;-70
2021/07/03 10:06:26;;;;;;;4.60;2.60;;;;;;;19.54;59.09;101520.56;10021643;28;20557;-69
2021/07/03 10:11:25;;;;;;;6.50;3.10;;;;;;;19.19;59.65;101522.44;10037005;28;20102;-69
2021/07/03 10:16:23;;;;;;;7.90;2.65;;;;;;;20.05;59.52;101518.94;10030070;28;20047;-70
2021/07/03 10:21:22;;;;;;;5.78;3.13;;;;;;;20.62;55.07;101519.38;10052589;28;20495;-70
2021/07/03 10:26:19;;;;;;;3.83;2.75;;;;;;;20.57;54.48;101517.69;10029168;28;20422;-70
2021/07/03 10:31:16;;;;;;;4.15;2.53;;;;;;;21.44;53.13;101531.97;10011888;29;20104;-68
2021/07/03 10:36:27;;;;;;;7.57;3.20;;;;;;;21.14;51.74;101518.75;10042129;28;20083;-69
2021/07/03 10:41:26;;;;;;;5.80;2.90;;;;;;;20.75;52.69;101518.84;10011033;28;20048;-69
2021/07/03 10:46:29;;;;;;;4.85;2.63;;;;;;;20.99;51.48;101516.88;10050915;28;20122;-70
2021/07/03 10:51:40;;;;;;;4.38;2.28;;;;;;;22.56;50.82;101512.88;10016081;29;20051;-71
2021/07/03 10:57:03;;;;;;;4.97;2.40;;;;;;;22.59;48.16;101511.28;10043625;28;20676;-70
2021/07/03 11:02:06;;;;;;;5.85;2.15;;;;;;;22.00;48.71;101508.13;10044968;28;20051;-70
2021/07/03 11:07:11;;;;;;;6.03;2.25;;;;;;;22.67;47.42;101501.81;10039158;29;20059;-71
2021/07/03 11:12:17;;;;;;;4.78;1.98;;;;;;;23.76;46.68;101504.38;10046640;28;20055;-70
2021/07/03 11:17:14;;;;;;;7.72;2.53;;;;;;;23.26;47.15;101504.81;10034220;28;20039;-70
2021/07/03 11:22:21;;;;;;;4.50;2.10;;;;;;;24.43;43.68;101500.31;10045348;28;20132;-71
2021/07/03 11:27:33;;;;;;;3.97;2.17;;;;;;;24.98;43.63;101495.25;10035058;28;20178;-71
2021/07/03 11:32:29;;;;;;;5.10;2.35;;;;;;;23.79;43.04;101493.25;10031609;28;20055;-72
2021/07/03 11:37:35;;;;;;;4.18;1.77;;;;;;;24.09;45.67;101484.63;10002586;28;20071;-71
2021/07/03 11:42:35;;;;;;;3.40;2.10;;;;;;;24.78;43.51;101474.44;10003875;28;20076;-71
2021/07/03 11:47:43;;;;;;;4.43;2.35;;;;;;;24.92;41.47;101485.66;10003340;29;20360;-70
2021/07/03 11:53:11;;;;;;;4.68;1.80;;;;;;;25.37;42.02;101460.09;10016464;28;20043;-70
2021/07/03 11:58:13;;;;;;;3.65;1.83;;;;;;;23.87;43.53;101454.97;10008218;28;20040;-70
2021/07/03 12:03:16;;;;;;;5.45;2.35;;;;;;;23.53;46.36;101453.19;10016624;29;20059;-70
2021/07/03 12:08:14;;;;;;;4.68;2.58;;;;;;;23.42;45.33;101448.72;10025883;29;20040;-70
2021/07/03 12:13:21;;;;;;;4.95;2.10;;;;;;;23.79;43.61;101442.16;10025241;29;20047;-70
2021/07/03 12:18:33;;;;;;;3.60;2.00;;;;;;;24.78;42.50;101440.88;10016465;29;20497;-70
2021/07/03 12:23:29;;;;;;;4.18;1.95;;;;;;;25.56;40.74;101439.28;10005457;29;20048;-70
2021/07/03 12:28:26;;;;;;;4.65;2.30;;;;;;;25.09;41.13;101441.31;10014467;28;20044;-70
2021/07/03 12:33:26;;;;;;;6.35;2.50;;;;;;;24.03;43.74;101435.91;10006858;29;20090;-70
2021/07/03 12:38:28;;;;;;;5.50;2.05;;;;;;;23.58;44.31;101432.47;10012890;29;20530;-71
2021/07/03 12:43:32;;;;;;;4.38;2.13;;;;;;;23.18;46.59;101428.59;10013096;29;20058;-70
2021/07/03 12:48:40;;;;;;;3.67;1.70;;;;;;;23.11;47.08;101431.34;10012232;29;20035;-71
2021/07/03 12:53:40;;;;;;;4.22;1.98;;;;;;;22.66;47.07;101427.75;10029972;28;20440;-71
2021/07/03 12:58:37;;;;;;;8.82;4.10;;;;;;;22.39;48.34;101429.88;10013834;28;20044;-70
2021/07/03 13:03:34;;;;;;;4.75;2.65;;;;;;;22.63;49.09;101428.53;10038554;28;20067;-70
2021/07/03 13:08:33;;;;;;;6.60;2.17;;;;;;;22.25;48.26;101427.72;10031063;29;20475;-71
2021/07/03 13:13:30;;;;;;;4.07;1.95;;;;;;;22.37;47.70;101416.34;10016688;28;20448;-70
2021/07/03 13:18:27;;;;;;;3.55;1.88;;;;;;;22.31;48.39;101414.28;10020835;28;20047;-70
2021/07/03 13:23:23;;;;;;;4.72;2.05;;;;;;;21.96;48.91;101410.66;10012581;29;20051;-71
2021/07/03 13:28:20;;;;;;;4.43;1.90;;;;;;;22.34;49.49;101402.34;10034504;28;20562;-71
2021/07/03 13:33:16;;;;;;;3.90;1.90;;;;;;;22.62;49.79;101393.47;10007955;28;20071;-70
2021/07/03 13:38:13;;;;;;;6.00;1.88;;;;;;;22.43;48.54;101398.06;10009528;28;20044;-70
2021/07/03 13:43:09;;;;;;;4.03;1.63;;;;;;;22.83;48.15;101393.66;10025184;28;20135;-71
2021/07/03 13:48:06;;;;;;;3.90;2.05;;;;;;;22.87;48.20;101400.06;10014017;29;20039;-71
2021/07/03 13:53:03;;;;;;;4.60;2.28;;;;;;;22.52;47.66;101391.41;10016820;28;20044;-70
2021/07/03 13:58:02;;;;;;;6.88;1.77;;;;;;;22.17;48.41;101395.38;10024806;29;20039;-71
2021/07/03 14:02:59;;;;;;;4.65;1.85;;;;;;;22.20;49.04;101380.69;10019352;28;20059;-70
2021/07/03 14:07:55;;;;;;;4.63;1.73;;;;;;;22.36;49.54;101369.34;10029464;28;20665;-71
2021/07/03 14:12:52;;;;;;;5.45;2.35;;;;;;;22.35;49.65;101374.13;10025969;29;20056;-71
2021/07/03 14:17:48;;;;;;;8.32;2.45;;;;;;;22.02;49.83;101375.75;10024386;29;20084;-70
2021/07/03 14:22:45;;;;;;;5.90;1.70;;;;;;;21.77;49.12;101377.41;10030626;28;20074;-71
2021/07/03 14:27:42;;;;;;;4.45;1.80;;;;;;;22.77;47.93;101372.91;10017229;29;20492;-70
2021/07/03 14:32:41;;;;;;;4.78;1.90;;;;;;;23.29;46.41;101370.91;10017831;29;20063;-71
2021/07/03 14:37:38;;;;;;;5.25;2.22;;;;;;;23.21;44.86;101374.84;10042171;28;20558;-70
2021/07/03 14:42:35;;;;;;;3.33;1.70;;;;;;;23.05;43.90;101366.78;10003054;29;20513;-70
2021/07/03 14:47:32;;;;;;;3.08;1.60;;;;;;;23.02;46.09;101366.72;9996693;28;20044;-71
2021/07/03 14:52:29;;;;;;;3.10;1.70;;;;;;;23.22;46.56;101354.13;10016847;29;20051;-71
2021/07/03 14:57:25;;;;;;;2.60;1.27;;;;;;;23.10;45.25;101341.31;10016944;29;20103;-71
2021/07/03 15:02:22;;;;;;;4.40;1.52;;;;;;;23.05;46.13;101338.09;10016263;29;20055;-70
2021/07/03 15:07:19;;;;;;;3.00;1.38;;;;;;;23.17;44.94;101356.50;10006646;29;20405;-71
2021/07/03 15:12:16;;;;;;;3.17;1.15;;;;;;;22.89;45.87;101347.50;10006920;29;20047;-70
2021/07/03 15:17:13;;;;;;;4.13;1.40;;;;;;;23.04;46.80;101336.47;10012922;29;20067;-71
2021/07/03 15:22:09;;;;;;;3.47;1.60;;;;;;;23.07;46.61;101330.13;10013268;29;20044;-70
2021/07/03 15:27:06;;;;;;;3.83;1.48;;;;;;;23.14;45.61;101318.19;10005877;29;20044;-71
2021/07/03 15:32:04;;;;;;;2.35;1.10;;;;;;;23.28;44.39;101327.47;10014283;28;20043;-70
2021/07/03 15:37:01;;;;;;;3.15;1.45;;;;;;;23.34;45.16;101327.09;10028689;28;20059;-71
2021/07/03 15:41:57;;;;;;;2.90;1.58;;;;;;;23.30;43.46;101316.72;10024035;28;20085;-71
2021/07/03 15:46:54;;;;;;;3.17;1.60;;;;;;;23.39;43.63;101313.56;10011383;28;20507;-71
2021/07/03 15:51:51;;;;;;;4.40;1.40;;;;;;;23.76;43.74;101308.94;10018537;28;20146;-71
2021/07/03 15:56:48;;;;;;;3.05;1.10;;;;;;;24.45;42.32;101310.66;10023100;28;20040;-71
2021/07/03 16:01:44;;;;;;;2.63;1.17;;;;;;;24.79;42.08;101308.28;10018763;28;20131;-71
2021/07/03 16:06:41;;;;;;;3.63;1.52;;;;;;;25.53;39.46;101311.28;10000277;29;20142;-71
2021/07/03 16:11:37;;;;;;;2.85;1.30;;;;;;;26.35;37.74;101302.41;10017836;28;20061;-71
2021/07/03 16:16:34;;;;;;;2.90;1.10;;;;;;;27.43;33.53;101299.38;10018564;29;20048;-71
2021/07/03 16:21:31;;;;;;;6.18;1.85;;;;;;;27.45;34.11;101285.69;10019185;28;20134;-72
2021/07/03 16:26:28;;;;;;;6.18;1.77;;;;;;;28.05;34.30;101288.09;10008024;29;20582;-71
2021/07/03 16:31:26;;;;;;;3.17;1.20;;;;;;;28.74;35.58;101278.09;10011081;28;20127;-71
2021/07/03 16:36:23;;;;;;;2.65;1.40;;;;;;;28.59;33.30;101282.38;10003685;29;21358;-70
2021/07/03 16:41:19;;;;;;;3.10;1.58;;;;;;;27.35;33.70;101281.00;10005554;28;20048;-69
2021/07/03 16:46:16;;;;;;;2.75;1.30;;;;;;;27.24;34.49;101280.34;10007964;29;20074;-69
2021/07/03 16:51:13;;;;;;;2.22;1.08;;;;;;;27.31;35.77;101274.63;10006009;29;20068;-69
2021/07/03 16:56:10;;;;;;;2.95;1.15;;;;;;;27.27;34.89;101273.91;10008194;28;20491;-72
2021/07/03 17:01:06;;;;;;;4.25;1.55;;;;;;;28.01;33.44;101270.47;10008197;28;20048;-69
2021/07/03 17:06:03;;;;;;;3.63;1.70;;;;;;;27.99;33.41;101278.53;10004490;29;20050;-69
2021/07/03 17:11:00;;;;;;;4.03;1.45;;;;;;;28.24;32.73;101278.94;10011591;28;20051;-69
2021/07/03 17:15:57;;;;;;;3.05;1.25;;;;;;;27.75;34.05;101281.25;9995311;28;20066;-69
2021/07/03 17:20:54;;;;;;;2.60;1.10;;;;;;;27.13;35.50;101283.25;10006972;29;20083;-70
2021/07/03 17:25:50;;;;;;;4.10;1.23;;;;;;;26.52;36.09;101286.63;10012549;29;20131;-69
2021/07/03 17:30:47;;;;;;;2.70;1.15;;;;;;;25.81;37.40;101283.16;10019548;28;20055;-69
2021/07/03 17:35:44;;;;;;;4.22;1.65;;;;;;;25.82;36.80;101284.72;10008511;29;20052;-70
2021/07/03 17:40:40;;;;;;;3.50;1.33;;;;;;;27.15;34.54;101278.00;10017735;28;20043;-70
2021/07/03 17:45:37;;;;;;;3.38;1.77;;;;;;;28.30;32.10;101274.44;10010252;29;20471;-70
2021/07/03 17:50:33;;;;;;;3.05;1.35;;;;;;;29.11;30.90;101278.25;10027525;28;20047;-70
2021/07/03 17:55:30;;;;;;;4.50;1.23;;;;;;;29.96;30.87;101275.63;10014742;29;20083;-70
2021/07/03 18:00:28;;;;;;;3.33;1.65;;;;;;;29.69;30.13;101266.59;10011376;28;20067;-71
2021/07/03 18:05:24;;;;;;;4.07;1.30;;;;;;;29.81;30.13;101265.09;10018772;28;20194;-70
2021/07/03 18:10:21;;;;;;;3.47;1.20;;;;;;;28.39;31.35;101257.00;10007994;29;20146;-70
2021/07/03 18:15:18;;;;;;;2.75;1.45;;;;;;;26.20;34.75;101259.69;10015394;29;20056;-71
2021/07/03 18:20:14;;;;;;;4.55;2.50;;;;;;;25.34;36.71;101260.19;10014306;29;20076;-73
2021/07/03 18:25:11;;;;;;;4.72;1.15;;;;;;;24.85;38.68;101250.72;10003775;28;20134;-72
2021/07/03 18:30:10;;;;;;;3.47;1.20;;;;;;;24.37;39.51;101259.56;10011264;29;20099;-70
2021/07/03 18:35:07;;;;;;;4.35;1.35;;;;;;;24.14;41.27;101257.94;10008077;29;20090;-69
2021/07/03 18:40:04;;;;;;;5.15;2.67;;;;;;;23.64;42.27;101252.25;10036641;28;20495;-71
2021/07/03 18:45:01;;;;;;;3.35;1.60;;;;;;;23.55;43.05;101253.81;10003040;29;20078;-71
2021/07/03 18:49:58;;;;;;;4.03;1.33;;;;;;;23.29;45.15;101256.50;10024335;28;20070;-71
2021/07/03 18:54:55;;;;;;;4.75;1.83;;;;;;;23.16;44.55;101249.72;10006740;29;20055;-70
2021/07/03 18:59:51;;;;;;;3.58;1.25;;;;;;;23.04;44.82;101247.22;10006171;28;20098;-71
2021/07/03 19:04:48;;;;;;;4.15;2.30;;;;;;;22.79;45.04;101250.66;10002587;29;20055;-71
2021/07/03 19:09:45;;;;;;;3.22;1.40;;;;;;;22.71;46.56;101245.44;9995506;29;20452;-71
2021/07/03 19:14:42;;;;;;;3.15;1.33;;;;;;;22.47;45.58;101242.88;10014870;28;20039;-67
2021/07/03 19:19:39;;;;;;;3.33;1.58;;;;;;;22.33;46.56;101234.41;10018118;29;20135;-68
2021/07/03 19:24:35;;;;;;;3.75;1.50;;;;;;;22.18;47.21;101241.03;10034413;28;20481;-67
2021/07/03 19:29:32;;;;;;;3.90;1.70;;;;;;;21.99;47.77;101240.06;10023831;28;20139;-68
2021/07/03 19:34:28;;;;;;;4.53;1.90;;;;;;;21.91;48.47;101243.97;10033645;29;20107;-68
2021/07/03 19:39:25;;;;;;;4.95;2.20;;;;;;;21.70;49.70;101243.72;10031708;28;20099;-68
2021/07/03 19:44:21;;;;;;;5.20;2.70;;;;;;;21.66;50.73;101240.94;10033580;29;20103;-67
2021/07/03 19:49:19;;;;;;;3.85;1.60;;;;;;;21.53;51.49;101240.38;10028360;28;20095;-68
2021/07/03 19:54:15;;;;;;;5.05;1.48;;;;;;;21.40;51.09;101236.28;10022098;28;20056;-67
2021/07/03 19:59:12;;;;;;;3.78;1.55;;;;;;;21.30;52.15;101231.34;10024480;28;20075;-69
2021/07/03 20:04:10;;;;;;;3.00;1.48;;;;;;;21.14;53.56;101235.13;10011206;29;20099;-69
2021/07/03 20:09:08;;;;;;;4.47;1.42;;;;;;;20.97;54.03;101246.81;10023600;28;20043;-69
2021/07/03 20:14:04;;;;;;;4.22;1.90;;;;;;;20.83;54.63;101246.59;10025804;28;20067;-68
2021/07/03 20:19:01;;;;;;;4.53;1.70;;;;;;;20.67;54.84;101250.34;10017309;29;20563;-69
2021/07/03 20:23:58;;;;;;;5.60;1.70;;;;;;;20.55;55.34;101243.00;10007299;29;20071;-71
2021/07/03 20:28:54;;;;;;;3.78;1.50;;;;;;;20.42;55.68;101246.34;10013855;28;20571;-69
2021/07/03 20:33:51;;;;;;;4.93;2.03;;;;;;;20.30;56.15;101242.59;10023741;28;20086;-69
2021/07/03 20:38:47;;;;;;;4.78;2.25;;;;;;;20.17;56.82;101241.19;10037375;28;20043;-66
2021/07/03 20:43:44;;;;;;;7.03;3.08;;;;;;;20.06;56.75;101243.00;10035440;28;20051;-69
2021/07/03 20:48:40;;;;;;;8.57;3.50;;;;;;;19.94;57.55;101247.53;10030174;28;20108;-69
2021/07/03 20:53:37;;;;;;;11.48;5.20;;;;;;;19.81;57.88;101254.44;10044499;28;20047;-69
2021/07/03 20:58:33;;;;;;;9.15;4.80;;;;;;;19.71;58.41;101250.28;10036493;28;20074;-69
2021/07/03 21:03:30;;;;;;;10.82;6.53;;;;;;;19.59;58.77;101244.06;10045952;29;20091;-70
2021/07/03 21:13:32;;;;;;;12.70;8.75;;;;;;;19.40;59.57;101250.41;11468277;23;20051;-77
2021/07/03 21:18:29;;;;;;;15.02;9.68;;;;;;;19.29;60.50;101266.84;10086024;28;20056;-74
2021/07/03 21:23:25;;;;;;;12.98;8.77;;;;;;;19.18;60.91;101260.28;10078256;28;20057;-74
2021/07/03 21:28:22;;;;;;;12.90;6.75;;;;;;;19.07;60.91;101248.94;10077516;28;20051;-75
2021/07/03 21:33:19;;;;;;;9.00;5.63;;;;;;;18.99;61.47;101239.69;10086210;28;20134;-74
2021/07/03 21:38:15;;;;;;;11.73;5.60;;;;;;;18.89;62.08;101234.69;10087985;28;20063;-75
2021/07/03 21:43:12;;;;;;;8.40;5.18;;;;;;;18.79;62.71;101238.84;10103528;28;20053;-73
2021/07/03 21:48:12;;;;;;;8.15;4.90;;;;;;;18.70;63.06;101239.03;10100462;28;20097;-74
2021/07/03 21:53:09;;;;;;;9.85;4.47;;;;;;;18.61;63.23;101232.88;10111347;28;20053;-74
2021/07/03 21:58:06;;;;;;;7.70;4.95;;;;;;;18.50;63.61;101223.50;10099971;28;20055;-74
2021/07/03 22:03:04;;;;;;;9.40;4.95;;;;;;;18.44;64.10;101227.72;10106351;28;20490;-74
2021/07/03 22:08:01;;;;;;;9.85;5.47;;;;;;;18.37;64.54;101222.00;10126998;28;20046;-75
2021/07/03 22:12:58;;;;;;;8.13;4.85;;;;;;;18.26;64.63;101214.25;10103434;28;20057;-74
2021/07/03 22:17:55;;;;;;;11.20;4.90;;;;;;;18.18;65.01;101209.69;10112376;28;20050;-74
2021/07/03 22:22:52;;;;;;;7.75;4.82;;;;;;;18.11;65.60;101206.75;10093935;28;20055;-74
2021/07/03 22:27:55;;;;;;;9.15;5.60;;;;;;;18.02;65.77;101212.47;10097417;28;20070;-73
2021/07/03 22:32:52;;;;;;;10.00;5.30;;;;;;;17.94;66.17;101207.09;10099675;28;20098;-73
2021/07/03 22:37:49;;;;;;;8.43;4.75;;;;;;;17.85;66.60;101213.63;10086255;28;20047;-74
2021/07/03 22:42:47;;;;;;;7.38;4.72;;;;;;;17.81;67.01;101215.47;10085988;28;20054;-73